• Join FlightAware (Why Join?)
  • Login
  • US Flag 
10:20AM EDT


 

Airport Tracker/Info


-or-


 

Live Flight TrackerFlight Track Log ✈ N78ML ✈ 13-Jul-2013 ✈ KCRQ - KSBA

Flight Track Log - Related Links

Times and Time Zones

All times are in EDT time to prevent confusion due to time zone crossing. See the N78ML flight status page for this flight to view local times or setup timezone preferences in your user account.

Time Position Orientation Groundspeed Altitude Reporting Facility
EDT Latitude Longitude Course Direction KTS MPH feet Rate Location/Type
06:44PM 33.1333 -117.3000 270° West 88 101 600  Level Southern California TRACON
06:45PM 33.1333 -117.3167 270° West 107 123 1,100 660 Climbing Southern California TRACON
06:46PM 33.1167 -117.3500 239° Southwest 98 113 1,900 780 Climbing Southern California TRACON
06:47PM 33.1333 -117.3667 320° Northwest 96 110 2,700 780 Climbing Southern California TRACON
06:48PM 33.1667 -117.3833 337° Northwest 93 107 3,500 720 Climbing Southern California TRACON
06:49PM 33.1833 -117.4000 320° Northwest 91 105 4,200 660 Climbing Southern California TRACON
06:50PM 33.2167 -117.4000 360° North 100 115 4,900 600 Climbing Southern California TRACON
06:51PM 33.2500 -117.4167 337° Northwest 111 128 5,500 540 Climbing Southern California TRACON
06:52PM 33.2667 -117.4500 301° West 121 139 6,000 240 Climbing Southern California TRACON
06:53PM 33.3000 -117.4833 320° Northwest 146 168 6,000  Level Southern California TRACON
06:54PM 33.3167 -117.5167 301° West 144 166 6,000  Level Southern California TRACON
06:55PM 33.3500 -117.5500 320° Northwest 141 162 6,000  Level Southern California TRACON
06:56PM 33.3833 -117.5833 320° Northwest 141 162 6,000  Level Southern California TRACON
06:57PM 33.4000 -117.6000 320° Northwest 139 160 6,000  Level Southern California TRACON
06:58PM 33.4333 -117.6333 320° Northwest 140 161 6,000  Level Southern California TRACON
06:59PM 33.4667 -117.6667 320° Northwest 139 160 6,000  Level Southern California TRACON
07:00PM 33.4833 -117.7000 301° West 136 157 6,000  Level Southern California TRACON
07:01PM 33.5167 -117.7333 320° Northwest 135 155 6,000  Level Southern California TRACON
07:02PM 33.5333 -117.7667 301° West 134 154 6,000  Level Southern California TRACON
07:03PM 33.5667 -117.8000 320° Northwest 138 159 6,100  Climbing Southern California TRACON
07:04PM 33.6000 -117.8333 320° Northwest 136 157 6,100  Level Southern California TRACON
07:05PM 33.6167 -117.8667 301° West 136 157 6,100  Level Southern California TRACON
07:06PM 33.6500 -117.9000 320° Northwest 135 155 6,100  Level Southern California TRACON
07:07PM 33.6667 -117.9333 301° West 134 154 6,100  Level Southern California TRACON
07:08PM 33.7000 -117.9667 320° Northwest 136 157 6,100  Level Southern California TRACON
07:09PM 33.7167 -118.0000 301° West 138 159 6,100  Level Southern California TRACON
07:10PM 33.7333 -118.0500 292° West 142 163 6,100  Level Southern California TRACON
07:11PM 33.7500 -118.0833 301° West 134 154 6,100  Level Southern California TRACON
07:12PM 33.7833 -118.1167 320° Northwest 133 153 6,100  Level Southern California TRACON
07:12PM 33.7861 -118.1422 277° West 133 153 6,100 -60 Level Los Angeles Center
07:13PM 33.8058 -118.1803 302° West 135 155 6,000 -60 Descending Los Angeles Center
07:15PM 33.8283 -118.2247 301° West 132 152 6,000  Level Los Angeles Center
07:16PM 33.8503 -118.2692 301° West 131 151 6,000  Level Los Angeles Center
07:17PM 33.8700 -118.3056 303° West 131 151 6,000  Level Los Angeles Center
07:18PM 33.8878 -118.3428 300° West 131 151 6,000  Level Los Angeles Center
07:19PM 33.9064 -118.3800 301° West 130 150 6,000  Level Los Angeles Center
07:20PM 33.9289 -118.4244 301° West 130 150 6,000  Level Los Angeles Center
07:21PM 33.9558 -118.4531 319° Northwest 137 158 6,000  Level Los Angeles Center
07:22PM 33.9708 -118.4947 293° West 134 154 6,000  Level Los Angeles Center
07:23PM 33.9825 -118.5372 288° West 133 153 6,000  Level Los Angeles Center
07:24PM 33.9944 -118.5819 288° West 131 151 6,000  Level Los Angeles Center
07:25PM 34.0056 -118.6250 287° West 133 153 6,000  Level Los Angeles Center
07:26PM 34.0169 -118.6669 288° West 133 153 6,000  Level Los Angeles Center
07:27PM 34.0286 -118.7133 287° West 135 155 6,000  Level Los Angeles Center
07:28PM 34.0394 -118.7558 287° West 133 153 6,000  Level Los Angeles Center
07:29PM 34.0497 -118.7958 287° West 132 152 6,000  Level Los Angeles Center
07:30PM 34.0606 -118.8386 287° West 133 153 6,000  Level Los Angeles Center
07:31PM 34.0697 -118.8889 282° West 136 157 6,000  Level Los Angeles Center
07:32PM 34.0814 -118.9250 291° West 134 154 6,000  Level Los Angeles Center
07:33PM 34.0936 -118.9758 286° West 133 153 6,000  Level Los Angeles Center
07:34PM 34.1053 -119.0178 289° West 134 154 6,000  Level Los Angeles Center
07:35PM 34.1175 -119.0606 289° West 134 154 6,000  Level Los Angeles Center
07:36PM 34.1344 -119.0997 298° West 133 153 6,000  Level Los Angeles Center
07:37PM 34.1531 -119.1389 300° West 135 155 6,000 -60 Level Los Angeles Center
07:38PM 34.1700 -119.1783 297° West 132 152 5,900 -300 Descending Los Angeles Center
07:39PM 34.1819 -119.2092 295° West 140 161 5,600 -600 Descending Los Angeles Center
07:40PM 34.1969 -119.2458 296° West 146 168 5,100 -540 Descending Los Angeles Center
07:40PM 34.2089 -119.2756 296° West 148 170 4,800 -480 Descending Los Angeles Center
07:41PM 34.2275 -119.3178 298° West 145 167 4,300 -420 Descending Los Angeles Center
07:42PM 34.2425 -119.3592 294° West 141 162 4,000 -180 Descending Los Angeles Center
07:44PM 34.2567 -119.3953 295° West 130 150 4,000  Level Los Angeles Center
07:45PM 34.2708 -119.4275 298° West 119 137 4,000  Level Los Angeles Center
07:46PM 34.2878 -119.4603 302° West 115 132 4,000  Level Los Angeles Center
07:47PM 34.3003 -119.4972 292° West 117 135 4,000 -120 Level Los Angeles Center
07:48PM 34.3153 -119.5372 294° West 112 129 3,800 -360 Descending Los Angeles Center
07:49PM 34.3317 -119.5739 298° West 117 135 3,300 -480 Descending Los Angeles Center
07:50PM 34.3467 -119.6147 294° West 125 144 2,900 -480 Descending Los Angeles Center
07:51PM 34.3614 -119.6547 294° West 129 148 2,400 -420 Descending Los Angeles Center
07:52PM 34.3792 -119.6931 299° West 130 150 2,100 -300 Descending Los Angeles Center
07:53PM 34.3911 -119.7289 292° West 123 142 1,900 -540 Descending Los Angeles Center
07:54PM 34.4081 -119.7761 294° West 124 143 1,100 -660 Descending Los Angeles Center
07:55PM 34.4203 -119.8069 296° West 115 132 600 -480 Descending Los Angeles Center
07:56PM 34.4281 -119.8311 291° West 94 108 200 -420 Descending Los Angeles Center
07:58PM 34.4262 -119.8415 258° West  Level Estimated